ALC weather

Alicante International Airport
Alicante, Valencia, Spain

Public forecast

Using degrees Celsius for public forecast. Weather courtesy of forecast.io.

Current aviation weather report (METAR) for Alicante International Airport

Retrieved 2020/01/24 01:30 UTC (0 seconds ago):

LEAL 240130Z 36005KT 9999 FEW018 10/07 Q1021 NOSIG

Aviation forecast (TAF) for Alicante International Airport

Retrieved 2020-01-24 00:27 UTC (1 hour ago):

TAF TAF LEAL 232300Z 2400/2424 36006KT 9999 BKN018 TX15/2412Z TN07/2406Z PROB30 TEMPO 2400/2403 BKN014 PROB30 TEMPO 2410/2416 RA BECMG 2410/2412 04010KT BECMG 2420/2424 VRB03KT